sensor_id;sensor_type;location;lat;lon;timestamp;temperature;humidity
12089;DHT22;6107;49.078;8.578;2023-03-04T00:01:14;-0.40;99.90
12089;DHT22;6107;49.078;8.578;2023-03-04T00:03:40;-0.30;99.90
12089;DHT22;6107;49.078;8.578;2023-03-04T00:06:06;-0.40;99.90
12089;DHT22;6107;49.078;8.578;2023-03-04T00:08:32;-0.30;99.90
12089;DHT22;6107;49.078;8.578;2023-03-04T00:10:58;-0.40;99.90
12089;DHT22;6107;49.078;8.578;2023-03-04T00:13:24;-0.70;99.90
12089;DHT22;6107;49.078;8.578;2023-03-04T00:15:49;-0.30;99.90
12089;DHT22;6107;49.078;8.578;2023-03-04T00:18:15;-0.70;99.90
12089;DHT22;6107;49.078;8.578;2023-03-04T00:20:41;-0.70;99.90
12089;DHT22;6107;49.078;8.578;2023-03-04T00:23:06;-0.40;99.90
12089;DHT22;6107;49.078;8.578;2023-03-04T00:25:32;-0.30;99.90
12089;DHT22;6107;49.078;8.578;2023-03-04T00:27:58;-0.40;99.90
12089;DHT22;6107;49.078;8.578;2023-03-04T00:30:23;-0.30;99.90
12089;DHT22;6107;49.078;8.578;2023-03-04T00:32:49;-0.50;99.90
12089;DHT22;6107;49.078;8.578;2023-03-04T00:35:15;-1.00;99.90
12089;DHT22;6107;49.078;8.578;2023-03-04T00:37:40;-0.80;99.90
12089;DHT22;6107;49.078;8.578;2023-03-04T00:40:07;-0.50;99.90
12089;DHT22;6107;49.078;8.578;2023-03-04T00:42:33;-0.40;99.90
12089;DHT22;6107;49.078;8.578;2023-03-04T00:44:58;-0.80;99.90
12089;DHT22;6107;49.078;8.578;2023-03-04T00:47:24;-1.00;99.90
12089;DHT22;6107;49.078;8.578;2023-03-04T00:49:49;-0.90;99.90
12089;DHT22;6107;49.078;8.578;2023-03-04T00:52:15;-0.70;99.90
12089;DHT22;6107;49.078;8.578;2023-03-04T00:54:40;-0.40;99.90
12089;DHT22;6107;49.078;8.578;2023-03-04T00:57:06;-0.10;99.90
12089;DHT22;6107;49.078;8.578;2023-03-04T00:59:31;-0.50;99.90
12089;DHT22;6107;49.078;8.578;2023-03-04T01:01:57;-1.00;99.90
12089;DHT22;6107;49.078;8.578;2023-03-04T01:04:22;-0.80;99.90
12089;DHT22;6107;49.078;8.578;2023-03-04T01:06:48;-0.40;99.90
12089;DHT22;6107;49.078;8.578;2023-03-04T01:09:13;-0.50;99.90
12089;DHT22;6107;49.078;8.578;2023-03-04T01:11:39;-1.00;99.90
12089;DHT22;6107;49.078;8.578;2023-03-04T01:14:04;-1.00;99.90
12089;DHT22;6107;49.078;8.578;2023-03-04T01:16:30;-0.80;99.90
12089;DHT22;6107;49.078;8.578;2023-03-04T01:18:56;-0.60;99.90
12089;DHT22;6107;49.078;8.578;2023-03-04T01:21:21;-0.50;99.90
12089;DHT22;6107;49.078;8.578;2023-03-04T01:23:47;-0.30;99.90
12089;DHT22;6107;49.078;8.578;2023-03-04T01:26:12;-0.20;99.90
12089;DHT22;6107;49.078;8.578;2023-03-04T01:28:38;-0.60;99.90
12089;DHT22;6107;49.078;8.578;2023-03-04T01:31:03;-0.60;99.90
12089;DHT22;6107;49.078;8.578;2023-03-04T01:33:29;-0.50;99.90
12089;DHT22;6107;49.078;8.578;2023-03-04T01:35:56;-0.70;99.90
12089;DHT22;6107;49.078;8.578;2023-03-04T01:38:22;-0.70;99.90
12089;DHT22;6107;49.078;8.578;2023-03-04T01:40:48;-0.60;99.90
12089;DHT22;6107;49.078;8.578;2023-03-04T01:43:19;-0.40;99.90
12089;DHT22;6107;49.078;8.578;2023-03-04T01:45:47;-0.20;99.90
12089;DHT22;6107;49.078;8.578;2023-03-04T01:48:15;-0.10;99.90
12089;DHT22;6107;49.078;8.578;2023-03-04T01:50:42;-0.40;99.90
12089;DHT22;6107;49.078;8.578;2023-03-04T01:53:22;-0.50;99.90
12089;DHT22;6107;49.078;8.578;2023-03-04T01:55:49;-0.30;99.90
12089;DHT22;6107;49.078;8.578;2023-03-04T01:58:16;-0.30;99.90
12089;DHT22;6107;49.078;8.578;2023-03-04T02:00:41;-0.60;99.90
12089;DHT22;6107;49.078;8.578;2023-03-04T02:03:13;-0.80;99.90
12089;DHT22;6107;49.078;8.578;2023-03-04T02:05:42;-0.70;99.90
12089;DHT22;6107;49.078;8.578;2023-03-04T02:08:09;-0.50;99.90
12089;DHT22;6107;49.078;8.578;2023-03-04T02:10:35;-0.30;99.90
12089;DHT22;6107;49.078;8.578;2023-03-04T02:13:01;-0.20;99.90
12089;DHT22;6107;49.078;8.578;2023-03-04T02:15:28;-0.30;99.90
12089;DHT22;6107;49.078;8.578;2023-03-04T02:17:55;-0.80;99.90
12089;DHT22;6107;49.078;8.578;2023-03-04T02:20:22;-0.90;99.90
12089;DHT22;6107;49.078;8.578;2023-03-04T02:23:19;-0.90;99.90
12089;DHT22;6107;49.078;8.578;2023-03-04T02:26:09;-0.60;99.90
12089;DHT22;6107;49.078;8.578;2023-03-04T02:28:34;-0.70;99.90
12089;DHT22;6107;49.078;8.578;2023-03-04T02:31:00;-0.60;99.90
12089;DHT22;6107;49.078;8.578;2023-03-04T02:33:26;-0.60;99.90
12089;DHT22;6107;49.078;8.578;2023-03-04T02:35:51;-0.70;99.90
12089;DHT22;6107;49.078;8.578;2023-03-04T02:38:17;-1.20;99.90
12089;DHT22;6107;49.078;8.578;2023-03-04T02:40:46;-1.40;99.90
12089;DHT22;6107;49.078;8.578;2023-03-04T02:43:13;-1.00;99.90
12089;DHT22;6107;49.078;8.578;2023-03-04T02:45:56;-0.90;99.90
12089;DHT22;6107;49.078;8.578;2023-03-04T02:48:22;-0.90;99.90
12089;DHT22;6107;49.078;8.578;2023-03-04T02:50:52;-1.10;99.90
12089;DHT22;6107;49.078;8.578;2023-03-04T02:53:20;-1.30;99.90
12089;DHT22;6107;49.078;8.578;2023-03-04T02:55:46;-1.20;99.90
12089;DHT22;6107;49.078;8.578;2023-03-04T02:58:12;-0.90;99.90
12089;DHT22;6107;49.078;8.578;2023-03-04T03:00:39;-1.00;99.90
12089;DHT22;6107;49.078;8.578;2023-03-04T03:03:04;-1.10;99.90
12089;DHT22;6107;49.078;8.578;2023-03-04T03:05:32;-1.60;99.90
12089;DHT22;6107;49.078;8.578;2023-03-04T03:07:58;-1.60;99.90
12089;DHT22;6107;49.078;8.578;2023-03-04T03:10:25;-1.60;99.90
12089;DHT22;6107;49.078;8.578;2023-03-04T03:12:50;-1.50;99.90
12089;DHT22;6107;49.078;8.578;2023-03-04T03:15:16;-1.60;99.90
12089;DHT22;6107;49.078;8.578;2023-03-04T03:17:42;-1.50;99.90
12089;DHT22;6107;49.078;8.578;2023-03-04T03:20:09;-1.50;99.90
12089;DHT22;6107;49.078;8.578;2023-03-04T03:22:35;-1.50;99.90
12089;DHT22;6107;49.078;8.578;2023-03-04T03:25:01;-1.60;99.90
12089;DHT22;6107;49.078;8.578;2023-03-04T03:27:26;-1.70;99.90
12089;DHT22;6107;49.078;8.578;2023-03-04T03:29:52;-1.70;99.90
12089;DHT22;6107;49.078;8.578;2023-03-04T03:32:17;-1.60;99.90
12089;DHT22;6107;49.078;8.578;2023-03-04T03:34:43;-1.80;99.90
12089;DHT22;6107;49.078;8.578;2023-03-04T03:37:08;-1.90;99.90
12089;DHT22;6107;49.078;8.578;2023-03-04T03:39:34;-1.90;99.90
12089;DHT22;6107;49.078;8.578;2023-03-04T03:42:00;-1.70;99.90
12089;DHT22;6107;49.078;8.578;2023-03-04T03:44:25;-1.90;99.90
12089;DHT22;6107;49.078;8.578;2023-03-04T03:46:51;-2.00;99.90
12089;DHT22;6107;49.078;8.578;2023-03-04T03:49:16;-1.90;99.90
12089;DHT22;6107;49.078;8.578;2023-03-04T03:51:42;-1.60;99.90
12089;DHT22;6107;49.078;8.578;2023-03-04T03:54:08;-1.80;99.90
12089;DHT22;6107;49.078;8.578;2023-03-04T03:56:33;-1.60;99.90
12089;DHT22;6107;49.078;8.578;2023-03-04T03:58:59;-2.00;99.90
12089;DHT22;6107;49.078;8.578;2023-03-04T04:01:24;-2.10;99.90
12089;DHT22;6107;49.078;8.578;2023-03-04T04:03:50;-2.00;99.90
12089;DHT22;6107;49.078;8.578;2023-03-04T04:06:15;-2.30;99.90
12089;DHT22;6107;49.078;8.578;2023-03-04T04:08:41;-2.30;99.90
12089;DHT22;6107;49.078;8.578;2023-03-04T04:11:09;-2.20;99.90
12089;DHT22;6107;49.078;8.578;2023-03-04T04:13:35;-2.50;99.90
12089;DHT22;6107;49.078;8.578;2023-03-04T04:16:00;-2.30;99.90
12089;DHT22;6107;49.078;8.578;2023-03-04T04:18:26;-2.40;99.90
12089;DHT22;6107;49.078;8.578;2023-03-04T04:20:52;-2.70;99.90
12089;DHT22;6107;49.078;8.578;2023-03-04T04:23:18;-2.80;99.90
12089;DHT22;6107;49.078;8.578;2023-03-04T04:25:43;-2.80;99.90
12089;DHT22;6107;49.078;8.578;2023-03-04T04:28:09;-2.50;99.90
12089;DHT22;6107;49.078;8.578;2023-03-04T04:30:35;-2.40;99.90
12089;DHT22;6107;49.078;8.578;2023-03-04T04:33:00;-2.10;99.90
12089;DHT22;6107;49.078;8.578;2023-03-04T04:35:32;-2.10;99.90
12089;DHT22;6107;49.078;8.578;2023-03-04T04:37:59;-2.40;99.90
12089;DHT22;6107;49.078;8.578;2023-03-04T04:40:24;-2.30;99.90
12089;DHT22;6107;49.078;8.578;2023-03-04T04:42:50;-2.10;99.90
12089;DHT22;6107;49.078;8.578;2023-03-04T04:45:15;-2.20;99.90
12089;DHT22;6107;49.078;8.578;2023-03-04T04:47:41;-2.50;99.90
12089;DHT22;6107;49.078;8.578;2023-03-04T04:50:07;-2.20;99.90
12089;DHT22;6107;49.078;8.578;2023-03-04T04:52:33;-2.00;99.90
12089;DHT22;6107;49.078;8.578;2023-03-04T04:54:58;-2.40;99.90
12089;DHT22;6107;49.078;8.578;2023-03-04T04:57:24;-2.30;99.90
12089;DHT22;6107;49.078;8.578;2023-03-04T04:59:49;-2.10;99.90
12089;DHT22;6107;49.078;8.578;2023-03-04T05:02:15;-2.30;99.90
12089;DHT22;6107;49.078;8.578;2023-03-04T05:04:40;-2.60;99.90
12089;DHT22;6107;49.078;8.578;2023-03-04T05:07:06;-2.60;99.90
12089;DHT22;6107;49.078;8.578;2023-03-04T05:09:31;-2.70;99.90
12089;DHT22;6107;49.078;8.578;2023-03-04T05:11:57;-2.90;99.90
12089;DHT22;6107;49.078;8.578;2023-03-04T05:14:22;-2.80;99.90
12089;DHT22;6107;49.078;8.578;2023-03-04T05:16:48;-2.80;99.90
12089;DHT22;6107;49.078;8.578;2023-03-04T05:19:13;-2.60;99.90
12089;DHT22;6107;49.078;8.578;2023-03-04T05:21:39;-2.70;99.90
12089;DHT22;6107;49.078;8.578;2023-03-04T05:24:05;-2.60;99.90
12089;DHT22;6107;49.078;8.578;2023-03-04T05:26:30;-2.30;99.90
12089;DHT22;6107;49.078;8.578;2023-03-04T05:28:56;-2.70;99.90
12089;DHT22;6107;49.078;8.578;2023-03-04T05:31:21;-3.00;99.90
12089;DHT22;6107;49.078;8.578;2023-03-04T05:33:47;-3.00;99.90
12089;DHT22;6107;49.078;8.578;2023-03-04T05:36:12;-2.70;99.90
12089;DHT22;6107;49.078;8.578;2023-03-04T05:38:38;-2.60;99.90
12089;DHT22;6107;49.078;8.578;2023-03-04T05:41:05;-2.60;99.90
12089;DHT22;6107;49.078;8.578;2023-03-04T05:43:32;-2.40;99.90
12089;DHT22;6107;49.078;8.578;2023-03-04T05:46:00;-2.10;99.90
12089;DHT22;6107;49.078;8.578;2023-03-04T05:48:26;-2.20;99.90
12089;DHT22;6107;49.078;8.578;2023-03-04T05:50:58;-2.60;99.90
12089;DHT22;6107;49.078;8.578;2023-03-04T05:53:24;-2.50;99.90
12089;DHT22;6107;49.078;8.578;2023-03-04T05:55:50;-2.60;99.90
12089;DHT22;6107;49.078;8.578;2023-03-04T05:58:16;-2.90;99.90
12089;DHT22;6107;49.078;8.578;2023-03-04T06:00:42;-2.70;99.90
12089;DHT22;6107;49.078;8.578;2023-03-04T06:03:13;-3.00;99.90
12089;DHT22;6107;49.078;8.578;2023-03-04T06:05:39;-3.00;99.90
12089;DHT22;6107;49.078;8.578;2023-03-04T06:08:05;-2.60;99.90
12089;DHT22;6107;49.078;8.578;2023-03-04T06:10:30;-2.50;99.90
12089;DHT22;6107;49.078;8.578;2023-03-04T06:12:56;-2.30;99.90
12089;DHT22;6107;49.078;8.578;2023-03-04T06:15:22;-2.40;99.90
12089;DHT22;6107;49.078;8.578;2023-03-04T06:17:47;-2.60;99.90
12089;DHT22;6107;49.078;8.578;2023-03-04T06:20:13;-2.70;99.90
12089;DHT22;6107;49.078;8.578;2023-03-04T06:22:38;-3.00;99.90
12089;DHT22;6107;49.078;8.578;2023-03-04T06:25:05;-2.90;99.90
12089;DHT22;6107;49.078;8.578;2023-03-04T06:27:30;-2.70;99.90
12089;DHT22;6107;49.078;8.578;2023-03-04T06:29:56;-2.60;99.90
12089;DHT22;6107;49.078;8.578;2023-03-04T06:32:21;-2.50;99.90
12089;DHT22;6107;49.078;8.578;2023-03-04T06:34:47;-2.20;99.90
12089;DHT22;6107;49.078;8.578;2023-03-04T06:37:12;-2.00;99.90
12089;DHT22;6107;49.078;8.578;2023-03-04T06:39:38;-1.90;99.90
12089;DHT22;6107;49.078;8.578;2023-03-04T06:42:03;-1.70;99.90
12089;DHT22;6107;49.078;8.578;2023-03-04T06:44:29;-1.50;99.90
12089;DHT22;6107;49.078;8.578;2023-03-04T06:46:54;-1.60;99.90
12089;DHT22;6107;49.078;8.578;2023-03-04T06:49:20;-1.50;99.90
12089;DHT22;6107;49.078;8.578;2023-03-04T06:51:45;-1.40;99.90
12089;DHT22;6107;49.078;8.578;2023-03-04T06:54:11;-1.20;99.90
12089;DHT22;6107;49.078;8.578;2023-03-04T06:56:36;-1.10;99.90
12089;DHT22;6107;49.078;8.578;2023-03-04T06:59:02;-1.00;99.90
